HOURLY OBS INDEX

039

South Coast - Curtis

BUNDABERG AERO

Site: 039128
Alt: 30.8m
5km SSW of BUNDABERG


  Time     Wind        Temp  DP   Baro     Rain since   Rain past  Vis(m), Cloud(base in m), Weather
  local        km/h                         9am  last   hr   10m    
Wed 15:00  NNE 24/ 30  24.3 11.9  1014.5    0.0   0.0   0.0   0.0   10000 
Wed 15:30    N 24/ 32  24.1 11.8  1014.2    0.0   0.0   0.0   0.0   10000 
Wed 16:00    N 24/ 30  23.7 12.0  1014.2    0.0   0.0   0.0   0.0   10000 
Wed 16:30    N 22/ 28  23.3 12.3  1014.5    0.0   0.0   0.0   0.0   10000 
Wed 17:00  NNE 24/ 30  22.1 13.7  1014.6    0.0   0.0   0.0   0.0   10000 
Wed 17:30    N 20/ 24  21.4 14.1  1014.8    0.0   0.0   0.0   0.0   10000 
Wed 18:00    N 17/ 22  20.7 14.1  1015.1    0.0   0.0   0.0   0.0   10000 
Wed 18:30    N 15/ 19  20.3 14.4  1015.4    0.0   0.0   0.0   0.0   10000 
Wed 19:00    N 15/ 19  20.1 14.7  1015.7    0.0   0.0   0.0   0.0   10000 
Wed 19:30    N 11/ 15  19.6 14.6  1016.0    0.0   0.0   0.0   0.0   10000 
Wed 20:00    N 11/ 13  19.3 15.2  1016.1    0.0   0.0   0.0   0.0   10000 
Wed 20:30  NNW 11/ 13  17.5 13.8  1016.3    0.0   0.0   0.0   0.0   10000 

GAYNDAH AIRPORT

Site: 039066
Alt: 110.9m
108km W of MARYBOROUGH


  Time     Wind        Temp  DP   Baro     Rain since   Rain past  Vis(m), Cloud(base in m), Weather
  local        km/h                         9am  last   hr   10m    
Wed 15:00   NE 13/ 26  29.1  8.7  1012.3    0.0   0.0   0.0   0.0   ----- 
Wed 15:30   NE  9/ 19  29.0  8.7  1012.1    0.0   0.0   0.0   0.0   ----- 
Wed 16:00   NE 11/ 17  29.1  8.7  1012.1    0.0   0.0   0.0   0.0   ----- 
Wed 16:30   NE 11/ 17  29.2  8.3  1012.1    0.0   0.0   0.0   0.0   ----- 
Wed 17:00  NNE 15/ 20  28.3  8.6  1012.3    0.0   0.0   0.0   0.0   ----- 
Wed 17:30  NNE 20/ 30  26.1  9.0  1012.8    0.0   0.0   0.0   0.0   ----- 
Wed 18:00  NNE 17/ 26  24.3  9.5  1013.4    0.0   0.0   0.0   0.0   ----- 
Wed 18:30  NNE 19/ 28  23.4 10.8  1013.7    0.0   0.0   0.0   0.0   ----- 
Wed 19:00   NE 13/ 22  22.4 10.5  1014.4    0.0   0.0   0.0   0.0   ----- 
Wed 19:30  NNE 15/ 20  21.7 11.4  1014.9    0.0   0.0   0.0   0.0   ----- 
Wed 20:00   NE 11/ 17  20.8 11.2  1015.2    0.0   0.0   0.0   0.0   ----- 
Wed 20:30   NE  9/ 15  19.8 10.8  1015.4    0.0   0.0   0.0   0.0   ----- 

GLADSTONE AIRPORT

Site: 039326
Alt: 16.6m
5km SW of GLADSTONE


  Time     Wind        Temp  DP   Baro     Rain since   Rain past  Vis(m), Cloud(base in m), Weather
  local        km/h                         9am  last   hr   10m    
Wed 15:00   NE 22/ 30  23.6 11.6  1014.6    0.0   0.0   0.0   0.0   10000 
Wed 15:30  ENE 22/ 32  23.0 13.5  1014.5    0.0   0.0   0.0   0.0   10000 
Wed 16:00   NE 20/ 28  23.1 14.1  1014.5    0.0   0.0   0.0   0.0   10000 
Wed 16:30  NNE 19/ 26  22.7 14.5  1014.5    0.0   0.0   0.0   0.0   10000 
Wed 17:00   NE 17/ 24  22.7 14.5  1014.7    0.0   0.0   0.0   0.0   10000 
Wed 17:30   NE 17/ 22  22.0 14.4  1014.9    0.0   0.0   0.0   0.0   10000 
Wed 18:00   NE 13/ 19  21.7 14.4  1015.3    0.0   0.0   0.0   0.0   10000 
Wed 18:30  NNE 13/ 19  21.3 14.5  1015.6    0.0   0.0   0.0   0.0   10000 
Wed 19:00    N 13/ 17  21.0 14.4  1015.9    0.0   0.0   0.0   0.0   10000 
Wed 19:30    N  9/ 11  20.8 14.5  1016.2    0.0   0.0   0.0   0.0   10000 
Wed 20:00  NNE  9/ 13  20.7 14.4  1016.2    0.0   0.0   0.0   0.0   10000 
Wed 20:30  NNE  9/ 13  20.5 14.6  1016.4    0.0   0.0   0.0   0.0   10000 

GLADSTONE RADAR

Site: 039123
Alt: 74.5m
3km SSE of GLADSTONE


  Time     Wind        Temp  DP   Baro     Rain since   Rain past  Vis(m), Cloud(base in m), Weather
  local        km/h                         9am  last   hr   10m    
Wed 15:00   NE 17/ 26  25.2 14.6  1014.8    0.0   0.0   0.0   0.0   ----- 
Wed 15:30   NE 15/ 24  24.3 14.4  1014.7    0.0   0.0   0.0   0.0   ----- 
Wed 16:00  NNE 17/ 26  23.0 14.8  1014.6    0.0   0.0   0.0   0.0   ----- 
Wed 16:30   NE 17/ 22  22.2 14.8  1014.7    0.0   0.0   0.0   0.0   ----- 
Wed 17:00   NE 11/ 19  21.7 15.1  1015.0    0.0   0.0   0.0   0.0   ----- 
Wed 17:30   NE 11/ 20  21.1 15.2  1015.0    0.0   0.0   0.0   0.0   ----- 
Wed 18:00   NE 11/ 20  20.5 14.6  1015.5    0.0   0.0   0.0   0.0   ----- 
Wed 18:30    N 11/ 17  20.3 14.9  1015.7    0.0   0.0   0.0   0.0   ----- 
Wed 19:00    N  9/ 17  20.1 15.1  1016.0    0.0   0.0   0.0   0.0   ----- 
Wed 19:30  NNW  7/ 11  19.8 15.2  1016.3    0.0   0.0   0.0   0.0   ----- 
Wed 20:00  NNW  7/ 11  19.8 15.4  1016.3    0.0   0.0   0.0   0.0   ----- 
Wed 20:30    N  7/ 15  19.7 16.0  1016.4    0.0   0.0   0.0   0.0   ----- 

HERON ISLAND RES STN

Site: 039122
Alt: 3.3m
80km ENE of GLADSTONE


  Time     Wind        Temp  DP   Baro     Rain since   Rain past  Vis(m), Cloud(base in m), Weather
  local        km/h                         9am  last   hr   10m    
Wed 15:00  NNE  9/ 11 --------  ------   ----  ----  ----  ----   ----- 
Wed 16:00  NNE  7/ 11 --------  ------   ----  ----  ----  ----   ----- 
Wed 17:00  NNE  9/ 13 --------  ------   ----  ----  ----  ----   ----- 
Wed 18:00    N  6/  7 --------  ------   ----  ----  ----  ----   ----- 
Wed 19:00    N  7/ 11 --------  ------   ----  ----  ----  ----   ----- 
Wed 20:00    N 13/ 17 --------  ------   ----  ----  ----  ----   ----- 

LADY ELLIOT ISLAND

Site: 039059
Alt: 3.6m
92km NNE of BUNDABERG


  Time     Wind        Temp  DP   Baro     Rain since   Rain past  Vis(m), Cloud(base in m), Weather
  local        km/h                         9am  last   hr   10m    
Wed 15:00    N  9/ 13  24.5 14.6  1015.0    0.0   0.0   0.0   0.0   ----- 
Wed 15:30    N  9/ 13  24.0 15.2  1014.6    0.0   0.0   0.0   0.0   ----- 
Wed 16:00    N 11/ 17  23.9 15.4  1014.7    0.0   0.0   0.0   0.0   ----- 
Wed 16:30    N  9/ 15  23.1 15.2  1014.9    0.0   0.0   0.0   0.0   ----- 
Wed 17:00    N 11/ 15  22.3 15.2  1015.1    0.0   0.0   0.0   0.0   ----- 
Wed 17:30    N 11/ 13  21.4 15.5  1015.1    0.0   0.0   0.0   0.0   ----- 
Wed 18:00    N 11/ 15  21.0 15.5  1015.4    0.0   0.0   0.0   0.0   ----- 
Wed 18:30  NNW  9/ 13  20.8 15.4  1015.8    0.0   0.0   0.0   0.0   ----- 
Wed 19:00  NNW  9/ 13  20.5 15.5  1015.9    0.0   0.0   0.0   0.0   ----- 
Wed 19:30    N  9/ 13  20.2 15.4  1016.3    0.0   0.0   0.0   0.0   ----- 
Wed 20:00    N 11/ 15  20.5 15.9  1016.5    0.0   0.0   0.0   0.0   ----- 
Wed 20:30    N  9/ 13  20.5 15.7  1016.6    0.0   0.0   0.0   0.0   ----- 

ROCKHAMPTON AERO

Site: 039083
Alt: 10.4m
3km WSW of ROCKHAMPTON


  Time     Wind        Temp  DP   Baro     Rain since   Rain past  Vis(m), Cloud(base in m), Weather
  local        km/h                         9am  last   hr   10m    
Wed 15:00   NE 17/ 22  27.8 10.9  1013.4    0.0   0.0   0.0   0.0   10000 
Wed 15:30  NNE 20/ 28  27.3  9.6  1013.1    0.0   0.0   0.0   0.0   10000 
Wed 16:00  NNE 20/ 26  26.9  8.4  1013.3    0.0   0.0   0.0   0.0   10000 
Wed 16:30   NE 15/ 22  26.4  9.3  1013.5    0.0   0.0   0.0   0.0   10000 
Wed 17:00   NE 15/ 20  25.9  8.8  1013.7    0.0   0.0   0.0   0.0   10000 
Wed 17:30   NE 17/ 20  24.3 11.3  1013.9    0.0   0.0   0.0   0.0   10000 
Wed 18:00  NNE 15/ 20  22.9 11.9  1014.4    0.0   0.0   0.0   0.0   10000 
Wed 18:30  NNE 15/ 19  21.6 12.5  1014.8    0.0   0.0   0.0   0.0   10000 
Wed 19:00    N 11/ 17  21.4 12.8  1015.4    0.0   0.0   0.0   0.0   10000 
Wed 19:30    N 15/ 20  20.8 13.5  1015.6    0.0   0.0   0.0   0.0   10000 
Wed 20:00    N 19/ 24  20.4 14.1  1016.0    0.0   0.0   0.0   0.0   10000 
Wed 20:30    N 17/ 20  20.0 14.1  1016.3    0.0   0.0   0.0   0.0   10000 

RUNDLE ISLAND

Site: 039322
Alt: 19.8m
34km N of GLADSTONE


  Time     Wind        Temp  DP   Baro     Rain since   Rain past  Vis(m), Cloud(base in m), Weather
  local        km/h                         9am  last   hr   10m    
Wed 15:00  ------/---  24.2----  1014.9   ----  ----  ----  ----   ----- 
Wed 15:30  ------/---  23.3----  1014.7   ----  ----  ----  ----   ----- 
Wed 16:30  ------/---  22.6----  1014.5   ----  ----  ----  ----   ----- 
Wed 18:30  ------/---  21.5----  1015.4   ----  ----  ----  ----   ----- 
Wed 19:00  ------/---  21.3----  1015.8   ----  ----  ----  ----   ----- 
Wed 19:30  ------/---  21.3----  1016.0   ----  ----  ----  ----   ----- 
Wed 20:00  NNE 15/ 17  21.3----  1016.0   ----  ----  ----  ----   ----- 
Wed 20:30  NNE 17/ 19  21.4----  1016.2   ----  ----  ----  ----   ----- 

THANGOOL AIRPORT

Site: 039089
Alt: 193.1m
13km SSE of BILOELA


  Time     Wind        Temp  DP   Baro     Rain since   Rain past  Vis(m), Cloud(base in m), Weather
  local        km/h                         9am  last   hr   10m    
Wed 15:00  WNW 17/ 26  29.6  9.2  1013.2    0.0   0.0   0.0   0.0   10000 
Wed 15:30  WNW 15/ 20  29.5  8.5  1013.0    0.0   0.0   0.0   0.0   10000 
Wed 16:00  WNW  9/ 15  29.9  8.9  1012.9    0.0   0.0   0.0   0.0   10000 
Wed 16:30  WNW 13/ 20  28.9  8.6  1013.0    0.0   0.0   0.0   0.0   10000 
Wed 17:00  WNW  9/ 13  29.0  8.1  1013.1    0.0   0.0   0.0   0.0   10000 
Wed 17:30  NNW 13/ 15  27.6  8.5  1013.5    0.0   0.0   0.0   0.0   10000 
Wed 18:00  NNE 19/ 28  24.6 11.9  1013.9    0.0   0.0   0.0   0.0   10000 
Wed 18:30  NNE 19/ 32  23.3 12.0  1014.3    0.0   0.0   0.0   0.0   10000 
Wed 19:00   NE 17/ 26  22.7 11.7  1014.7    0.0   0.0   0.0   0.0   10000 
Wed 19:30  ENE  9/ 15  21.5 11.2  1015.2    0.0   0.0   0.0   0.0   10000 
Wed 20:00   SW  6/  7  19.6 10.9  1015.7    0.0   0.0   0.0   0.0   10000 
Wed 20:30   NW  6/  7  19.0 11.1  1015.9    0.0   0.0   0.0   0.0   10000